Time;durP1;ratioP1;P1;durP2;ratioP2;P2;SDS_P1;SDS_P2;PMS_P1;PMS_P2;Temp;Humidity;BMP_temperature;BMP_pressure;BME280_temperature;BME280_humidity;BME280_pressure;Samples;Min_cycle;Max_cycle;Signal;HPM_P1;HPM_P2
2023/10/15 00:00:37;;;;;;;;;3.00;3.00;;;;;15.24;54.29;101731.03;5038016;28;48440;-73
2023/10/15 00:03:24;;;;;;;;;3.33;2.67;;;;;15.12;54.48;101712.59;5038937;28;45682;-70
2023/10/15 00:06:21;;;;;;;;;3.00;1.33;;;;;15.22;54.69;101735.44;5036533;28;45522;-72
2023/10/15 00:09:23;;;;;;;;;2.00;1.00;;;;;15.23;54.31;101731.03;5038720;28;45429;-70
2023/10/15 00:12:21;;;;;;;;;1.33;1.33;;;;;15.21;54.42;101730.16;4990397;28;45835;-73
2023/10/15 00:14:46;;;;;;;;;3.00;1.67;;;;;14.81;54.31;101659.88;5013669;28;45994;-71
2023/10/15 00:17:12;;;;;;;;;2.00;2.00;;;;;15.20;54.70;101734.56;5037100;28;45369;-70
2023/10/15 00:19:55;;;;;;;;;4.00;2.00;;;;;15.03;55.43;101725.78;5033693;28;45606;-71
2023/10/15 00:22:23;;;;;;;;;3.33;3.33;;;;;14.95;55.54;101723.16;5024716;28;45474;-70
2023/10/15 00:24:48;;;;;;;;;2.00;2.00;;;;;14.81;55.50;101704.69;5024335;28;45601;-71
2023/10/15 00:27:16;;;;;;;;;1.67;1.67;;;;;14.95;55.19;101731.06;5037313;28;45359;-71
2023/10/15 00:29:41;;;;;;;;;1.00;1.00;;;;;14.98;54.33;101736.34;5023079;28;45238;-70
2023/10/15 00:32:07;;;;;;;;;2.67;1.00;;;;;14.99;54.87;101734.56;5036638;28;46105;-72
2023/10/15 00:34:32;;;;;;;;;1.00;1.00;;;;;14.82;54.88;101702.94;5037161;28;45354;-70
2023/10/15 00:37:01;;;;;;;;;3.00;0.67;;;;;14.99;54.26;101738.09;5028389;28;45477;-71
2023/10/15 00:39:27;;;;;;;;;1.00;1.00;;;;;14.94;54.77;101733.69;5031931;28;45520;-70
2023/10/15 00:41:53;;;;;;;;;1.67;0.67;;;;;14.99;54.56;101738.09;5029430;28;46190;-69
2023/10/15 00:44:19;;;;;;;;;1.00;1.00;;;;;14.91;55.07;101729.31;5018218;28;45441;-71
2023/10/15 00:46:54;;;;;;;;;0.33;0.33;;;;;14.93;54.82;101721.41;5020072;28;45382;-71
2023/10/15 00:49:25;;;;;;;;;1.00;0.00;;;;;14.97;54.94;101733.69;5023434;28;45504;-71
2023/10/15 00:51:52;;;;;;;;;2.33;1.00;;;;;14.94;55.05;101725.78;5023467;28;45408;-69
2023/10/15 00:54:19;;;;;;;;;1.67;1.67;;;;;14.83;54.80;101707.34;5023353;28;45848;-70
2023/10/15 00:56:47;;;;;;;;;1.67;1.67;;;;;14.85;55.14;101721.38;5020095;28;45347;-71
2023/10/15 00:59:19;;;;;;;;;3.00;1.00;;;;;14.93;55.36;101734.59;5028942;28;45425;-70
2023/10/15 01:02:03;;;;;;;;;1.00;1.00;;;;;14.86;54.76;101725.78;5036716;28;46289;-69
2023/10/15 01:04:34;;;;;;;;;1.00;1.00;;;;;14.87;55.18;101724.91;5025841;28;45420;-71
2023/10/15 01:07:13;;;;;;;;;1.00;1.00;;;;;14.96;54.88;101748.66;5023152;28;45553;-71
2023/10/15 01:09:40;;;;;;;;;1.00;1.00;;;;;14.89;55.27;101730.19;5021567;28;45438;-68
2023/10/15 01:12:39;;;;;;;;;0.33;0.33;;;;;14.92;55.26;101738.97;5044918;28;45524;-69
2023/10/15 01:14:59;;;;;;;;;2.67;2.00;;;;;14.81;55.61;101733.72;5019503;28;45375;-67
2023/10/15 01:17:26;;;;;;;;;1.00;1.00;;;;;14.71;56.14;101745.13;5023687;28;45512;-70
2023/10/15 01:19:52;;;;;;;;;4.00;1.00;;;;;14.67;55.53;101724.91;5023232;28;45363;-69
2023/10/15 01:22:20;;;;;;;;;3.00;2.00;;;;;14.65;55.47;101729.28;5037518;28;45691;-68
2023/10/15 01:24:56;;;;;;;;;2.00;0.33;;;;;14.62;55.50;101731.94;5024325;28;45431;-70
2023/10/15 01:27:30;;;;;;;;;1.00;1.00;;;;;14.70;55.84;101738.09;5024038;28;45435;-69
2023/10/15 01:29:58;;;;;;;;;3.00;1.00;;;;;14.75;55.68;101735.47;5042727;28;45484;-69
2023/10/15 01:32:27;;;;;;;;;1.00;1.00;;;;;14.76;55.59;101731.94;5055536;28;46622;-69
2023/10/15 01:34:53;;;;;;;;;1.00;1.00;;;;;14.74;55.65;101724.03;5042683;28;45708;-69
2023/10/15 01:39:50;;;;;;;;;1.00;1.00;;;;;14.72;55.58;101723.16;5042980;28;45309;-68
2023/10/15 01:53:04;;;;;;;;;1.00;1.00;;;;;14.57;56.24;101700.28;5042468;28;45460;-69
2023/10/15 01:55:30;;;;;;;;;1.00;1.00;;;;;14.62;55.96;101718.75;5042553;28;45525;-70
2023/10/15 01:58:00;;;;;;;;;2.67;0.00;;;;;14.61;55.99;101724.88;5042710;28;45543;-70
2023/10/15 02:03:06;;;;;;;;;1.00;0.67;;;;;14.56;56.46;101708.19;5041743;28;45219;-69
2023/10/15 02:05:41;;;;;;;;;1.00;0.67;;;;;14.52;56.16;101709.94;5043271;28;45403;-70
2023/10/15 02:08:12;;;;;;;;;2.33;1.00;;;;;14.56;56.00;101722.25;5038950;28;45363;-70
2023/10/15 02:10:46;;;;;;;;;1.00;1.00;;;;;14.45;56.08;101704.63;5041423;28;45468;-69
2023/10/15 02:13:15;;;;;;;;;3.67;1.00;;;;;14.38;55.67;101699.34;5037473;28;47791;-69
2023/10/15 02:15:42;;;;;;;;;1.00;1.00;;;;;14.52;55.88;101736.28;5038617;28;45413;-67
2023/10/15 02:18:14;;;;;;;;;1.00;1.00;;;;;14.52;55.94;101744.19;5038834;28;45564;-67
2023/10/15 02:23:20;;;;;;;;;1.00;1.00;;;;;14.47;56.02;101742.41;5038423;28;45331;-67
2023/10/15 02:25:48;;;;;;;;;2.00;1.00;;;;;14.41;55.98;101733.63;5038847;28;45413;-68
2023/10/15 02:28:20;;;;;;;;;1.67;1.00;;;;;14.42;55.76;101742.41;5029858;28;46422;-68
2023/10/15 02:30:48;;;;;;;;;1.00;1.00;;;;;14.42;56.27;101740.63;5036564;28;45885;-68
2023/10/15 02:33:18;;;;;;;;;0.33;0.00;;;;;14.49;55.76;101751.22;5054597;28;45446;-67
2023/10/15 02:35:47;;;;;;;;;1.00;1.00;;;;;14.29;55.60;101716.91;5038316;28;45447;-68
2023/10/15 02:38:13;;;;;;;;;3.00;1.33;;;;;14.39;55.75;101739.78;5038939;28;45246;-67
2023/10/15 02:43:26;;;;;;;;;2.00;2.00;;;;;14.36;56.16;101743.28;5038843;28;45902;-68
2023/10/15 02:45:53;;;;;;;;;2.00;1.00;;;;;14.34;56.24;101747.66;5040068;28;45314;-69
2023/10/15 02:48:22;;;;;;;;;1.00;1.00;;;;;14.34;56.05;101752.06;5039956;28;45439;-70
2023/10/15 02:50:59;;;;;;;;;3.33;1.00;;;;;14.25;56.00;101736.22;5033604;28;45754;-69
2023/10/15 02:53:35;;;;;;;;;1.00;1.00;;;;;14.20;55.88;101728.28;5031816;28;45330;-70
2023/10/15 02:56:10;;;;;;;;;1.67;1.00;;;;;14.30;56.12;101752.91;5037832;28;45228;-70
2023/10/15 02:58:46;;;;;;;;;1.00;1.00;;;;;14.27;55.95;101748.53;5038312;28;45436;-68
2023/10/15 03:01:25;;;;;;;;;1.33;1.00;;;;;14.28;56.18;101754.66;5040330;28;45363;-70
2023/10/15 03:03:56;;;;;;;;;1.67;1.00;;;;;14.06;56.11;101722.09;5040377;28;46711;-70
2023/10/15 03:06:28;;;;;;;;;2.00;2.00;;;;;14.16;56.42;101752.88;5030219;28;45380;-69
2023/10/15 03:08:56;;;;;;;;;0.00;0.00;;;;;14.13;56.76;101755.50;5042452;28;45411;-69
2023/10/15 03:11:32;;;;;;;;;0.67;0.67;;;;;14.12;56.80;101764.28;5055277;28;45185;-70
2023/10/15 03:14:00;;;;;;;;;2.33;1.00;;;;;14.10;56.33;101758.13;5038783;28;45769;-70
2023/10/15 03:16:31;;;;;;;;;3.00;2.67;;;;;14.16;56.42;101771.31;5038535;28;45536;-70
2023/10/15 03:18:57;;;;;;;;;1.33;1.00;;;;;14.06;56.83;101766.88;5039641;28;45343;-71
2023/10/15 03:21:26;;;;;;;;;1.00;1.00;;;;;14.13;56.36;101776.56;5038886;28;45462;-71
2023/10/15 03:23:56;;;;;;;;;5.33;2.00;;;;;14.09;56.81;101777.44;5036477;28;46232;-70
2023/10/15 03:26:32;;;;;;;;;1.67;1.67;;;;;14.02;56.85;101765.97;5025185;28;45470;-71
2023/10/15 03:29:06;;;;;;;;;1.33;1.00;;;;;13.93;57.01;101761.56;5023744;28;45379;-71
2023/10/15 03:31:32;;;;;;;;;3.67;2.00;;;;;13.71;57.22;101754.44;5038368;28;45244;-70
2023/10/15 03:36:43;;;;;;;;;1.67;0.00;;;;;13.74;57.32;101773.78;5037760;28;45532;-71
2023/10/15 03:44:47;;;;;;;;;2.67;1.00;;;;;13.80;57.13;101778.19;5037099;28;45717;-70
2023/10/15 03:47:22;;;;;;;;;2.00;1.00;;;;;13.81;57.57;101772.06;5039257;28;45552;-71
2023/10/15 03:49:51;;;;;;;;;4.67;1.00;;;;;13.79;57.61;101772.03;5037342;28;45328;-70
2023/10/15 03:52:22;;;;;;;;;3.00;2.00;;;;;13.69;57.85;101771.97;5037597;28;45825;-69
2023/10/15 03:54:48;;;;;;;;;3.67;2.00;;;;;13.61;58.14;101777.19;5035624;28;46598;-70
2023/10/15 03:57:18;;;;;;;;;3.67;2.00;;;;;13.62;57.90;101767.53;5037525;28;45428;-71
2023/10/15 03:59:53;;;;;;;;;3.33;3.00;;;;;13.61;57.78;101778.94;5037706;28;45432;-70
2023/10/15 04:02:22;;;;;;;;;1.00;1.00;;;;;13.55;57.59;101757.00;5032820;28;45395;-71
2023/10/15 04:05:14;;;;;;;;;4.33;3.00;;;;;13.68;57.92;101780.75;5016964;28;45439;-70
2023/10/15 04:07:48;;;;;;;;;2.00;2.00;;;;;13.46;58.34;101754.28;5036027;28;45802;-71
2023/10/15 04:10:15;;;;;;;;;3.67;2.00;;;;;13.64;57.85;101786.84;5037531;28;45605;-70
2023/10/15 04:12:43;;;;;;;;;2.00;1.00;;;;;13.65;57.65;101786.00;5039530;28;45382;-71
2023/10/15 04:15:17;;;;;;;;;1.00;1.00;;;;;13.60;57.98;101766.69;5035632;28;46673;-71
2023/10/15 04:17:45;;;;;;;;;1.00;1.00;;;;;13.72;57.99;101795.69;5035176;28;45429;-71
2023/10/15 04:20:15;;;;;;;;;1.33;1.33;;;;;13.69;57.70;101790.38;5039038;28;45744;-70
2023/10/15 04:22:44;;;;;;;;;2.33;1.00;;;;;13.77;57.37;101796.59;5039419;28;45290;-70
2023/10/15 04:25:32;;;;;;;;;3.00;2.00;;;;;13.79;57.44;101805.41;5039468;28;45697;-71
2023/10/15 04:28:08;;;;;;;;;1.00;1.00;;;;;13.79;57.75;101806.25;5031321;28;45904;-69
2023/10/15 04:30:38;;;;;;;;;3.00;2.00;;;;;13.78;57.21;101796.59;5032266;28;45496;-71
2023/10/15 04:33:18;;;;;;;;;4.33;1.67;;;;;13.75;57.47;101787.81;5037736;28;45461;-71
2023/10/15 04:35:43;;;;;;;;;1.67;1.67;;;;;13.84;57.62;101801.03;5035135;28;46919;-70
2023/10/15 04:38:21;;;;;;;;;1.33;1.33;;;;;13.75;57.08;101793.06;5037071;28;45496;-69
2023/10/15 04:41:00;;;;;;;;;2.00;1.00;;;;;13.74;57.09;101800.09;5037256;28;45527;-69
2023/10/15 04:43:26;;;;;;;;;2.00;2.00;;;;;13.83;57.33;101820.31;5052254;28;45434;-72
2023/10/15 04:45:57;;;;;;;;;1.33;1.33;;;;;13.35;57.49;101745.44;5036719;28;45482;-69
2023/10/15 04:48:27;;;;;;;;;3.00;1.67;;;;;13.82;57.27;101826.47;5049272;28;45915;-70
2023/10/15 04:50:53;;;;;;;;;2.00;2.00;;;;;13.69;57.46;101808.81;5031928;28;45496;-71
2023/10/15 04:55:48;;;;;;;;;2.33;2.33;;;;;13.91;57.02;101846.72;5028618;28;45286;-70
2023/10/15 04:58:15;;;;;;;;;2.67;2.00;;;;;13.91;57.54;101847.59;5037780;28;45499;-72
2023/10/15 05:00:43;;;;;;;;;3.00;2.00;;;;;13.95;57.37;101846.75;5037278;28;45361;-71
2023/10/15 05:03:09;;;;;;;;;2.67;2.67;;;;;13.75;56.87;101811.50;5039206;28;45420;-70
2023/10/15 05:05:36;;;;;;;;;2.00;2.00;;;;;13.67;57.25;101789.53;5054321;28;47272;-68
2023/10/15 05:08:02;;;;;;;;;3.00;3.00;;;;;13.95;57.20;101836.22;5036322;28;45277;-69
2023/10/15 05:10:33;;;;;;;;;2.00;2.00;;;;;13.75;57.21;101809.75;5036541;28;45369;-69
2023/10/15 05:12:59;;;;;;;;;1.67;1.67;;;;;13.60;57.02;101782.47;5036826;28;45160;-69
2023/10/15 05:15:25;;;;;;;;;4.33;2.00;;;;;13.83;56.81;101817.69;5038034;28;45291;-70
2023/10/15 05:18:00;;;;;;;;;1.67;1.67;;;;;13.70;56.69;101794.81;5038304;28;45388;-70
2023/10/15 05:20:26;;;;;;;;;2.33;2.00;;;;;14.01;56.76;101830.09;5037769;28;45691;-71
2023/10/15 05:22:56;;;;;;;;;2.00;2.00;;;;;13.83;56.72;101801.00;5038893;28;45292;-71
2023/10/15 05:25:24;;;;;;;;;4.33;1.67;;;;;13.63;57.83;101790.38;5038675;28;45485;-70
2023/10/15 05:27:50;;;;;;;;;2.00;2.00;;;;;13.74;58.18;101834.31;5046342;28;45443;-70
2023/10/15 05:30:16;;;;;;;;;3.00;3.00;;;;;13.67;58.07;101816.72;5028475;28;45314;-70
2023/10/15 05:32:45;;;;;;;;;2.00;2.00;;;;;13.77;58.87;101825.56;5035347;28;45855;-70
2023/10/15 05:35:12;;;;;;;;;2.33;2.33;;;;;13.75;58.02;101828.19;5035710;28;45334;-71
2023/10/15 05:37:40;;;;;;;;;4.00;2.00;;;;;13.72;57.47;101824.66;5051507;28;45402;-69
2023/10/15 05:40:07;;;;;;;;;5.00;2.67;;;;;13.39;57.64;101767.41;5036408;28;45497;-71
2023/10/15 05:42:33;;;;;;;;;3.33;2.00;;;;;13.47;57.93;101792.88;5038369;28;45366;-72
2023/10/15 05:45:00;;;;;;;;;1.67;1.67;;;;;13.68;58.14;101820.25;5036901;28;46124;-69
2023/10/15 05:47:26;;;;;;;;;2.00;2.00;;;;;13.54;58.13;101807.84;5037192;28;45613;-71
2023/10/15 05:49:54;;;;;;;;;5.33;2.33;;;;;13.58;58.38;101832.47;5039744;28;45495;-70
2023/10/15 05:52:20;;;;;;;;;2.00;2.00;;;;;13.39;58.95;101804.25;5039650;28;45413;-71
2023/10/15 05:54:47;;;;;;;;;3.00;2.33;;;;;13.42;58.82;101815.66;5039256;28;45606;-71
2023/10/15 05:57:14;;;;;;;;;3.00;3.00;;;;;13.35;59.23;101824.38;5039713;28;45924;-70
2023/10/15 05:59:39;;;;;;;;;2.00;2.00;;;;;13.42;58.89;101834.09;5038569;28;45312;-70
2023/10/15 06:02:05;;;;;;;;;2.33;2.33;;;;;13.45;58.82;101836.72;5039711;28;45472;-70
2023/10/15 06:04:31;;;;;;;;;3.33;2.00;;;;;13.24;58.72;101818.09;5039030;28;46257;-67
2023/10/15 06:06:57;;;;;;;;;2.00;2.00;;;;;13.36;58.75;101842.81;5039371;28;45495;-69
2023/10/15 06:09:24;;;;;;;;;3.67;1.00;;;;;13.50;58.66;101849.94;5039266;28;45421;-69
2023/10/15 06:11:50;;;;;;;;;4.00;2.67;;;;;12.97;58.67;101769.66;5039602;28;45385;-68
2023/10/15 06:14:16;;;;;;;;;3.67;2.67;;;;;13.44;58.70;101844.63;5039543;28;46226;-68
2023/10/15 06:16:41;;;;;;;;;2.33;2.33;;;;;13.46;58.93;101853.44;5038948;28;45505;-69
2023/10/15 06:19:09;;;;;;;;;1.67;1.67;;;;;13.50;58.80;101849.94;5039409;28;45530;-70
2023/10/15 06:21:35;;;;;;;;;2.00;2.00;;;;;13.23;58.58;101826.88;5040138;28;45473;-68
2023/10/15 06:24:01;;;;;;;;;2.33;2.33;;;;;13.19;58.86;101817.19;5054878;28;45830;-70
2023/10/15 06:26:28;;;;;;;;;7.67;6.33;;;;;13.42;58.82;101852.50;5039015;28;45481;-68
2023/10/15 06:28:54;;;;;;;;;7.67;5.00;;;;;13.49;58.41;101859.56;5025129;28;45223;-68
2023/10/15 06:31:23;;;;;;;;;8.67;6.00;;;;;13.40;58.38;101841.06;5039463;28;45453;-71
2023/10/15 06:33:49;;;;;;;;;19.50;15.25;;;;;13.67;58.65;101885.19;5039001;28;45546;-71
2023/10/15 06:36:15;;;;;;;;;9.67;7.33;;;;;13.75;57.59;101875.56;5038911;28;45769;-70
2023/10/15 06:38:41;;;;;;;;;6.33;5.00;;;;;13.81;57.82;101887.91;5038426;28;45382;-71
2023/10/15 06:41:10;;;;;;;;;12.33;11.33;;;;;13.69;58.02;101853.56;5053767;28;45453;-73
2023/10/15 06:43:36;;;;;;;;;7.33;5.00;;;;;13.10;57.63;101753.13;5038686;28;45404;-79
2023/10/15 06:46:08;;;;;;;;;3.33;3.33;;;;;13.75;57.70;101870.31;5039687;28;45468;-73
2023/10/15 06:48:35;;;;;;;;;11.00;7.33;;;;;13.91;59.62;101888.84;5040489;28;45489;-71
2023/10/15 06:51:04;;;;;;;;;6.33;5.33;;;;;14.02;57.49;101887.16;5041281;28;45576;-76
2023/10/15 06:53:34;;;;;;;;;7.00;5.33;;;;;13.86;58.71;101837.91;5041323;28;46353;-76
2023/10/15 06:56:01;;;;;;;;;6.33;3.67;;;;;14.05;56.81;101863.47;5041033;28;45276;-76
2023/10/15 06:58:28;;;;;;;;;3.67;2.67;;;;;14.00;56.34;101866.09;5041457;28;45164;-78
2023/10/15 07:00:56;;;;;;;;;9.00;5.67;;;;;14.37;56.85;101904.91;5042662;28;45595;-74
2023/10/15 07:03:25;;;;;;;;;4.33;3.00;;;;;14.19;55.92;101868.84;5039820;28;45516;-78
2023/10/15 07:05:51;;;;;;;;;3.00;3.00;;;;;14.27;56.19;101882.03;5036982;28;45906;-75
2023/10/15 07:08:17;;;;;;;;;4.00;2.33;;;;;14.47;56.17;101908.47;5039125;28;45245;-73
2023/10/15 07:10:43;;;;;;;;;3.00;2.33;;;;;14.52;55.46;101906.75;5039798;28;45476;-73
2023/10/15 07:13:10;;;;;;;;;2.00;2.00;;;;;14.32;55.92;101875.91;5023487;28;45527;-74
2023/10/15 07:15:37;;;;;;;;;1.00;1.00;;;;;14.37;55.52;101879.44;5018497;28;45450;-73
2023/10/15 07:18:03;;;;;;;;;2.33;2.00;;;;;14.62;55.54;101922.66;5028553;28;45377;-72
2023/10/15 07:20:37;;;;;;;;;2.00;2.00;;;;;14.48;54.92;101889.16;5020555;28;45391;-73
2023/10/15 07:23:02;;;;;;;;;3.67;2.00;;;;;14.38;55.03;101856.63;5018576;28;46096;-74
2023/10/15 07:25:28;;;;;;;;;1.33;1.33;;;;;14.79;54.35;101917.44;5022290;28;45535;-74
2023/10/15 07:27:56;;;;;;;;;3.00;3.00;;;;;14.69;54.51;101906.84;5031548;28;45691;-74
2023/10/15 07:30:23;;;;;;;;;2.00;2.00;;;;;14.83;54.58;101932.41;5022289;28;45496;-75
2023/10/15 07:32:58;;;;;;;;;2.67;2.67;;;;;14.88;54.88;101928.88;5023377;28;46308;-75
2023/10/15 07:35:25;;;;;;;;;4.67;2.33;;;;;14.92;54.47;101926.25;5029171;28;45610;-75
2023/10/15 07:37:52;;;;;;;;;4.00;2.00;;;;;14.93;54.19;101922.75;5035669;28;45317;-72
2023/10/15 07:40:32;;;;;;;;;2.33;2.33;;;;;15.01;53.77;101930.69;5026418;28;45491;-76
2023/10/15 07:42:59;;;;;;;;;3.00;2.33;;;;;15.01;53.69;101920.13;5038624;28;46122;-74
2023/10/15 07:45:27;;;;;;;;;2.33;2.00;;;;;15.09;53.58;101939.53;5030078;28;45387;-74
2023/10/15 07:47:53;;;;;;;;;2.00;2.00;;;;;15.14;53.59;101950.97;5028851;28;45279;-74
2023/10/15 07:50:26;;;;;;;;;1.33;1.33;;;;;15.16;53.57;101935.13;5035192;28;45438;-74
2023/10/15 07:52:53;;;;;;;;;3.00;2.00;;;;;15.19;53.00;101936.03;5026907;28;45506;-74
2023/10/15 07:56:05;;;;;;;;;1.67;1.67;;;;;15.19;53.38;101933.38;5024032;28;45513;-68
2023/10/15 07:58:31;;;;;;;;;1.00;1.00;;;;;15.27;52.66;101930.75;5037851;28;45486;-74
2023/10/15 08:00:59;;;;;;;;;0.33;0.33;;;;;15.41;52.76;101946.63;5034126;28;45366;-73
2023/10/15 08:03:29;;;;;;;;;2.00;2.00;;;;;15.44;52.62;101947.47;5027373;28;45453;-73
2023/10/15 08:05:55;;;;;;;;;2.33;2.33;;;;;15.47;52.20;101944.88;5025867;28;45426;-73
2023/10/15 08:08:22;;;;;;;;;5.33;2.00;;;;;15.55;52.09;101952.78;5017897;28;45373;-73
2023/10/15 08:10:50;;;;;;;;;3.00;3.00;;;;;15.55;51.77;101933.44;5017100;28;45612;-73
2023/10/15 08:13:18;;;;;;;;;2.00;2.00;;;;;15.73;52.58;101954.59;5033397;28;46849;-77
2023/10/15 08:15:44;;;;;;;;;2.00;2.00;;;;;15.58;51.82;101912.28;5019007;28;45713;-77
2023/10/15 08:18:12;;;;;;;;;2.00;2.00;;;;;15.80;50.78;101934.31;5026211;28;45346;-73
2023/10/15 08:20:38;;;;;;;;;2.00;2.00;;;;;15.98;50.62;101958.09;5027372;28;45395;-75
2023/10/15 08:23:04;;;;;;;;;4.00;1.33;;;;;15.98;50.25;101928.16;5020412;28;46097;-75
2023/10/15 08:25:32;;;;;;;;;2.00;1.00;;;;;16.22;49.69;101956.31;5043329;28;45398;-72
2023/10/15 08:27:57;;;;;;;;;3.33;2.33;;;;;16.23;48.99;101944.84;5019255;28;45627;-75
2023/10/15 08:30:23;;;;;;;;;5.00;2.00;;;;;16.43;48.74;101969.47;5032568;28;46130;-75
2023/10/15 08:32:56;;;;;;;;;1.00;1.00;;;;;16.51;48.55;101975.63;5023424;28;45469;-76
2023/10/15 08:35:21;;;;;;;;;1.00;1.00;;;;;16.67;48.26;101962.34;5053403;28;45469;-75
2023/10/15 08:37:47;;;;;;;;;2.00;2.00;;;;;16.86;48.44;101960.53;5037378;28;45447;-76
2023/10/15 08:40:17;;;;;;;;;3.33;2.00;;;;;17.04;48.27;101978.97;5039054;28;45729;-77
2023/10/15 08:42:50;;;;;;;;;2.00;1.00;;;;;17.25;47.26;101977.09;5037545;28;45504;-78
2023/10/15 08:45:21;;;;;;;;;2.00;1.00;;;;;17.36;45.77;101960.25;5037763;28;45528;-77
2023/10/15 08:47:48;;;;;;;;;2.67;1.33;;;;;17.54;46.20;101963.69;5041634;28;45337;-75
2023/10/15 08:50:19;;;;;;;;;1.00;1.00;;;;;17.57;46.13;101948.63;5044089;28;45350;-76
2023/10/15 08:52:46;;;;;;;;;2.00;1.00;;;;;17.62;45.67;101966.25;5046786;28;46989;-76
2023/10/15 08:55:13;;;;;;;;;2.67;2.00;;;;;17.57;45.81;101974.25;5049330;28;45448;-76
2023/10/15 08:57:41;;;;;;;;;2.00;2.00;;;;;17.43;45.87;101965.50;5044959;28;46311;-75
2023/10/15 09:00:25;;;;;;;;;2.00;1.00;;;;;17.58;45.54;101981.28;5043856;28;45501;-75
2023/10/15 09:02:59;;;;;;;;;1.00;1.00;;;;;17.54;45.51;101958.38;5041223;28;45428;-75
2023/10/15 09:05:25;;;;;;;;;3.67;1.33;;;;;17.57;44.84;101976.88;5053218;28;45457;-76
2023/10/15 09:08:06;;;;;;;;;2.33;1.00;;;;;17.67;44.78;101994.47;5037261;28;46426;-73
2023/10/15 09:10:32;;;;;;;;;2.00;1.00;;;;;17.76;43.92;101981.16;5045187;28;45435;-73
2023/10/15 09:12:59;;;;;;;;;1.00;1.00;;;;;17.88;43.99;101976.69;5034809;28;46023;-74
2023/10/15 09:15:29;;;;;;;;;1.00;1.00;;;;;18.11;44.57;101977.34;5037123;28;45492;-73
2023/10/15 09:17:59;;;;;;;;;1.00;1.00;;;;;18.23;44.22;101987.84;5036440;28;45291;-75
2023/10/15 09:20:32;;;;;;;;;1.00;1.00;;;;;18.44;44.55;102000.00;5038103;28;45589;-77
2023/10/15 09:23:00;;;;;;;;;1.00;1.00;;;;;18.55;43.48;102004.31;5040282;28;45441;-76
2023/10/15 09:25:27;;;;;;;;;1.33;1.00;;;;;18.00;42.31;101956.22;5040949;28;45334;-74
2023/10/15 09:27:57;;;;;;;;;3.00;1.00;;;;;17.99;42.71;101964.22;5034421;28;45432;-73
2023/10/15 09:30:25;;;;;;;;;1.67;0.67;;;;;18.45;42.15;101974.34;5033739;28;45222;-75
2023/10/15 09:32:51;;;;;;;;;0.00;0.00;;;;;18.63;41.73;101999.81;5055662;28;46277;-74
2023/10/15 09:35:17;;;;;;;;;1.33;0.00;;;;;18.51;41.96;101990.22;5041147;28;45513;-75
2023/10/15 09:37:46;;;;;;;;;0.67;0.67;;;;;17.99;41.95;101921.81;5056662;28;45425;-76
2023/10/15 09:40:20;;;;;;;;;1.00;1.00;;;;;17.80;42.40;101921.97;5057376;28;45512;-77
2023/10/15 09:42:53;;;;;;;;;3.00;3.00;;;;;18.00;42.66;102009.25;5041695;28;45314;-77
2023/10/15 09:45:24;;;;;;;;;3.00;2.00;;;;;18.50;42.87;102001.69;5039400;28;45480;-78
2023/10/15 09:47:57;;;;;;;;;1.33;1.00;;;;;19.22;41.07;101984.94;5034366;28;45350;-77
2023/10/15 09:50:32;;;;;;;;;1.00;1.00;;;;;20.13;39.64;101997.69;5042361;28;45703;-74
2023/10/15 09:53:09;;;;;;;;;3.67;1.00;;;;;21.06;37.16;101979.91;5041541;28;46696;-72
2023/10/15 09:55:34;;;;;;;;;0.67;0.67;;;;;20.62;37.42;101955.09;5030899;28;45477;-73
2023/10/15 09:58:04;;;;;;;;;2.00;1.00;;;;;22.49;35.00;101998.63;5029752;28;45433;-72
2023/10/15 10:03:47;;;;;;;;;0.00;0.00;;;;;22.85;34.49;102004.75;5033427;28;45933;-72
2023/10/15 10:06:50;;;;;;;;;0.33;0.33;;;;;25.94;30.67;101987.63;5013869;28;45322;-72
2023/10/15 10:09:47;;;;;;;;;3.67;2.00;;;;;25.12;30.10;101987.31;5019717;28;45431;-75
2023/10/15 10:12:43;;;;;;;;;3.00;2.67;;;;;25.94;29.12;101999.22;5054051;28;45470;-75
2023/10/15 10:15:22;;;;;;;;;0.00;0.00;;;;;27.54;27.26;101994.63;5026173;28;45233;-78
2023/10/15 10:17:50;;;;;;;;;2.00;0.00;;;;;26.45;27.03;101973.69;5049881;28;45481;-76
2023/10/15 10:20:19;;;;;;;;;2.00;0.00;;;;;25.89;28.77;102006.59;5025351;28;45987;-74
2023/10/15 10:23:06;;;;;;;;;1.00;1.00;;;;;28.81;26.13;101997.94;5021086;28;45508;-77
2023/10/15 10:25:45;;;;;;;;;2.00;0.50;;;;;29.67;24.32;101976.06;5020168;28;46171;-77
2023/10/15 10:28:19;;;;;;;;;1.80;0.40;;;;;29.75;23.84;102003.47;5020711;28;45599;-76
2023/10/15 10:30:59;;;;;;;;;1.00;1.00;;;;;29.37;23.93;101996.59;5035653;28;45501;-76
2023/10/15 10:33:45;;;;;;;;;0.50;0.00;;;;;28.67;25.13;102012.19;5039627;28;45417;-79
2023/10/15 10:36:13;;;;;;;;;1.75;0.75;;;;;31.88;22.00;101989.13;5040868;28;45478;-78
2023/10/15 10:38:40;;;;;;;;;1.40;0.00;;;;;33.75;19.61;102000.09;5041184;28;45784;-76
2023/10/15 10:41:13;;;;;;;;;0.00;0.00;;;;;35.32;18.25;101992.22;5040832;28;45430;-76
2023/10/15 10:43:46;;;;;;;;;0.00;0.00;;;;;36.16;17.77;101973.28;5042485;28;45396;-77
2023/10/15 10:46:21;;;;;;;;;0.00;0.00;;;;;37.02;16.73;101973.81;5040429;28;45986;-78
2023/10/15 10:49:04;;;;;;;;;0.60;0.60;;;;;34.37;18.53;101992.63;5040824;28;45325;-78
2023/10/15 10:51:34;;;;;;;;;1.00;0.20;;;;;34.39;18.46;101988.78;5041308;28;45510;-80
2023/10/15 10:53:59;;;;;;;;;0.80;0.60;;;;;32.31;19.89;101999.72;5044457;28;45333;-78
2023/10/15 10:56:40;;;;;;;;;1.75;1.00;;;;;30.30;21.00;102008.31;5042147;28;45918;-79
2023/10/15 10:59:10;;;;;;;;;1.00;1.00;;;;;30.79;21.43;101997.09;5035330;28;45455;-75
2023/10/15 11:01:38;;;;;;;;;0.00;0.00;;;;;33.26;19.03;101995.59;5043502;28;45382;-78
2023/10/15 11:04:08;;;;;;;;;0.00;0.00;;;;;33.23;18.74;102001.28;5037146;28;45212;-78
2023/10/15 11:06:42;;;;;;;;;3.00;1.60;;;;;32.79;18.85;101990.94;5036997;28;45492;-80
2023/10/15 11:09:30;;;;;;;;;0.80;0.80;;;;;34.04;18.16;101977.94;5038640;28;45569;-77
2023/10/15 11:11:56;;;;;;;;;1.40;1.00;;;;;35.66;16.83;101982.09;5040978;28;45838;-79
2023/10/15 11:14:23;;;;;;;;;1.20;1.00;;;;;36.69;16.01;101990.41;5043405;28;44784;-78
2023/10/15 11:16:50;;;;;;;;;0.80;0.00;;;;;37.66;15.42;101986.16;5041651;28;45333;-77
2023/10/15 11:19:17;;;;;;;;;1.00;1.00;;;;;37.71;15.45;101987.47;5039840;28;45425;-78
2023/10/15 11:21:43;;;;;;;;;0.00;0.00;;;;;34.68;17.16;101968.44;5040048;28;45326;-78
2023/10/15 11:24:10;;;;;;;;;0.00;0.00;;;;;35.37;17.44;101977.22;5039813;28;45437;-77
2023/10/15 11:26:41;;;;;;;;;1.20;1.20;;;;;36.02;16.00;101979.91;5039516;28;45307;-77
2023/10/15 11:29:22;;;;;;;;;0.00;0.00;;;;;35.35;16.84;101989.25;5026755;28;45470;-78
2023/10/15 11:31:50;;;;;;;;;1.00;0.40;;;;;33.42;18.17;101980.91;5039828;28;45223;-76
2023/10/15 11:34:19;;;;;;;;;2.00;0.00;;;;;34.32;17.41;101975.81;5041029;28;45389;-78
2023/10/15 11:36:48;;;;;;;;;0.00;0.00;;;;;34.73;16.45;101893.56;5045255;28;46277;-78
2023/10/15 11:39:19;;;;;;;;;2.00;0.40;;;;;35.18;16.37;101972.44;5039432;28;45484;-74
2023/10/15 11:41:52;;;;;;;;;2.20;0.40;;;;;35.47;16.22;101961.81;5038333;28;45592;-77
2023/10/15 11:44:26;;;;;;;;;1.80;1.00;;;;;35.71;15.77;101976.25;5038118;28;45330;-77
2023/10/15 11:46:54;;;;;;;;;0.00;0.00;;;;;35.48;15.75;101984.50;5038126;28;47519;-78
2023/10/15 11:49:22;;;;;;;;;1.20;0.00;;;;;34.98;15.55;101926.94;5039911;28;45428;-78
2023/10/15 11:51:55;;;;;;;;;0.40;0.40;;;;;34.71;16.22;101979.91;5041113;28;45144;-79
2023/10/15 11:54:30;;;;;;;;;1.00;1.00;;;;;34.18;16.83;101944.25;5040624;28;45424;-78
2023/10/15 11:57:00;;;;;;;;;1.20;0.60;;;;;33.75;17.00;101950.31;5026043;28;45172;-76
2023/10/15 11:59:26;;;;;;;;;0.80;0.80;;;;;33.10;17.50;101932.56;5037762;28;45413;-77
2023/10/15 12:01:54;;;;;;;;;0.00;0.00;;;;;31.88;18.83;101964.72;5040574;28;45472;-79
2023/10/15 12:04:20;;;;;;;;;3.00;1.00;;;;;30.17;20.25;101964.91;5040632;28;45708;-80
2023/10/15 12:06:47;;;;;;;;;1.80;1.20;;;;;28.66;21.19;101969.97;5040483;28;46092;-78
2023/10/15 12:09:16;;;;;;;;;1.40;0.80;;;;;27.96;21.57;101966.50;5038552;28;45405;-78
2023/10/15 12:11:46;;;;;;;;;0.40;0.00;;;;;27.01;21.54;101963.13;5040043;28;45412;-77
2023/10/15 12:14:12;;;;;;;;;1.60;1.00;;;;;26.53;22.58;101962.63;5043260;28;45504;-77